CYVM/YVM METAR and TAF weather

Enter ICAO airport designator
Station Type Date Time Source
CYVM METAR 2019/08/19 12:00 UTC NOAA

CYVM 191200Z 21007KT 15SM FEW100 BKN250 08/03 A3000 RMK AC1CC5 AC TR SLP160


Station Type Date Time Source
CYVM Decoded METAR 2019/08/19 12:00 UTC NOAA

Station name not available
Aug 19, 2019 - 08:00 AM EDT / 2019.08.19 1200 UTC
Wind: from the SSW (210 degrees) at 8 MPH (7 KT):0
Visibility: 15 mile(s):0
Sky conditions: mostly cloudy
Temperature: 46 F (8 C)
Dew Point: 37 F (3 C)
Relative Humidity: 70%
Pressure (altimeter): 30 in. Hg (1015 hPa)
ob: CYVM 191200Z 21007KT 15SM FEW100 BKN250 08/03 A3000 RMK AC1CC5 AC TR SLP160
cycle: 12

Station Type Date Time Source
CYVM TAF 2019/08/19 07:39 UTC NOAA

TAF TAF CYVM 190638Z 1907/1919 19005KT P6SM FEW020
BECMG 1913/1915 02008KT
FM191500 02008KT P6SM SCT020
TEMPO 1915/1919 BKN020
RMK FCST BASED ON AUTO OBS. NXT FCST BY 191300Z

Example: see airport list